Time,TemperatureF,DewpointF,PressureIn,WindDirection,WindDirectionDegrees,WindSpeedMPH,WindSpeedGustMPH,Humidity,HourlyPrecipIn,Conditions,Clouds,dailyrainin,SolarRadiationWatts/m^2,SoftwareType,DateUTC
2013-02-02 00:02:00,29.0,19.0,-100.00,ESE,115,4.0,6.0,66,0.00,,,0.00,0.000000,,2013-02-02 07:02:00,
2013-02-02 00:11:00,29.0,19.0,-100.00,ESE,115,4.0,6.0,66,0.00,,,0.00,0.000000,,2013-02-02 07:11:00,
2013-02-02 00:21:00,29.0,19.0,-100.00,ESE,115,4.0,6.0,66,0.00,,,0.00,0.000000,,2013-02-02 07:21:00,
2013-02-02 00:31:00,29.0,19.0,-100.00,ESE,115,4.0,6.0,66,0.00,,,0.00,0.000000,,2013-02-02 07:31:00,
2013-02-02 00:52:00,27.0,21.0,-100.00,SE,144,2.0,6.0,78,0.00,,,0.00,0.000000,,2013-02-02 07:52:00,
2013-02-02 01:01:00,27.0,21.0,-100.00,SE,144,2.0,6.0,78,0.00,,,0.00,0.000000,,2013-02-02 08:01:00,
2013-02-02 01:11:00,27.0,21.0,-100.00,SE,144,2.0,6.0,78,0.00,,,0.00,0.000000,,2013-02-02 08:11:00,
2013-02-02 01:21:00,27.0,21.0,-100.00,SE,144,2.0,6.0,78,0.00,,,0.00,0.000000,,2013-02-02 08:21:00,
2013-02-02 01:31:00,27.0,21.0,-100.00,SE,144,2.0,6.0,78,0.00,,,0.00,0.000000,,2013-02-02 08:31:00,
2013-02-02 01:53:00,27.0,20.0,-100.00,SSW,201,2.0,5.0,75,0.00,,,-99.99,0.000000,,2013-02-02 08:53:00,
2013-02-02 02:01:00,27.0,20.0,-100.00,SSW,201,2.0,5.0,75,0.00,,,-99.99,0.000000,,2013-02-02 09:01:00,
2013-02-02 02:11:00,27.0,20.0,-100.00,SSW,201,2.0,5.0,75,0.00,,,-99.99,0.000000,,2013-02-02 09:11:00,
2013-02-02 02:22:00,27.0,20.0,-100.00,SSW,201,2.0,5.0,75,0.00,,,-99.99,0.000000,,2013-02-02 09:22:00,
2013-02-02 02:31:00,27.0,20.0,-100.00,SSW,201,2.0,5.0,75,0.00,,,-99.99,0.000000,,2013-02-02 09:31:00,
2013-02-02 02:52:00,26.0,19.0,-100.00,SSE,150,1.0,6.0,74,0.00,,,0.00,0.000000,,2013-02-02 09:52:00,
2013-02-02 03:01:00,26.0,19.0,-100.00,SSE,150,1.0,6.0,74,0.00,,,0.00,0.000000,,2013-02-02 10:01:00,
2013-02-02 03:11:00,26.0,19.0,-100.00,SSE,150,1.0,6.0,74,0.00,,,0.00,0.000000,,2013-02-02 10:11:00,
2013-02-02 03:21:00,26.0,19.0,-100.00,SSE,150,1.0,6.0,74,0.00,,,0.00,0.000000,,2013-02-02 10:21:00,
2013-02-02 03:31:00,26.0,19.0,-100.00,SSE,150,1.0,6.0,74,0.00,,,0.00,0.000000,,2013-02-02 10:31:00,
2013-02-02 03:52:00,23.0,19.0,-100.00,East,100,5.0,6.0,83,0.00,,,0.00,0.000000,,2013-02-02 10:52:00,
2013-02-02 04:01:00,23.0,19.0,-100.00,East,100,5.0,6.0,83,0.00,,,0.00,0.000000,,2013-02-02 11:01:00,
2013-02-02 04:11:00,23.0,19.0,-100.00,East,100,5.0,6.0,83,0.00,,,0.00,0.000000,,2013-02-02 11:11:00,
2013-02-02 04:21:00,23.0,19.0,-100.00,East,100,5.0,6.0,83,0.00,,,0.00,0.000000,,2013-02-02 11:21:00,
2013-02-02 04:31:00,23.0,19.0,-100.00,East,100,5.0,6.0,83,0.00,,,0.00,0.000000,,2013-02-02 11:31:00,
2013-02-02 04:52:00,24.0,21.0,-100.00,ENE,70,5.0,7.0,87,0.00,,,0.00,0.000000,,2013-02-02 11:52:00,
2013-02-02 05:01:00,24.0,21.0,-100.00,ENE,70,5.0,7.0,87,0.00,,,0.00,0.000000,,2013-02-02 12:01:00,
2013-02-02 05:11:00,24.0,21.0,-100.00,ENE,70,5.0,7.0,87,0.00,,,0.00,0.000000,,2013-02-02 12:11:00,
2013-02-02 05:22:00,24.0,21.0,-100.00,ENE,70,5.0,7.0,87,0.00,,,0.00,0.000000,,2013-02-02 12:22:00,
2013-02-02 05:32:00,24.0,21.0,-100.00,ENE,70,5.0,7.0,87,0.00,,,0.00,0.000000,,2013-02-02 12:32:00,
2013-02-02 05:52:00,23.0,18.0,-100.00,ENE,71,5.0,7.0,80,0.00,,,0.00,0.000000,,2013-02-02 12:52:00,
2013-02-02 06:02:00,23.0,18.0,-100.00,ENE,71,5.0,7.0,80,0.00,,,0.00,0.000000,,2013-02-02 13:02:00,
2013-02-02 06:11:00,23.0,18.0,-100.00,ENE,71,5.0,7.0,80,0.00,,,0.00,0.000000,,2013-02-02 13:11:00,
2013-02-02 06:21:00,23.0,18.0,-100.00,ENE,71,5.0,7.0,80,0.00,,,0.00,0.000000,,2013-02-02 13:21:00,
2013-02-02 06:32:00,23.0,18.0,-100.00,ENE,71,5.0,7.0,80,0.00,,,0.00,0.000000,,2013-02-02 13:32:00,
2013-02-02 06:52:00,21.0,18.0,-100.00,East,80,7.0,9.0,89,0.00,,,0.00,0.000000,,2013-02-02 13:52:00,
2013-02-02 07:02:00,21.0,18.0,-100.00,East,80,7.0,9.0,89,0.00,,,0.00,0.000000,,2013-02-02 14:02:00,
2013-02-02 07:11:00,21.0,18.0,-100.00,East,80,7.0,9.0,89,0.00,,,0.00,0.000000,,2013-02-02 14:11:00,
2013-02-02 07:22:00,21.0,18.0,-100.00,East,80,7.0,9.0,89,0.00,,,0.00,0.000000,,2013-02-02 14:22:00,
2013-02-02 07:32:00,21.0,18.0,-100.00,East,80,7.0,9.0,89,0.00,,,0.00,0.000000,,2013-02-02 14:32:00,
2013-02-02 07:52:00,20.0,17.0,-100.00,ENE,68,6.0,9.0,88,0.00,,,-99.99,3.000000,,2013-02-02 14:52:00,
2013-02-02 08:03:00,20.0,17.0,-100.00,ENE,68,6.0,9.0,88,0.00,,,-99.99,3.000000,,2013-02-02 15:03:00,
2013-02-02 08:12:00,20.0,17.0,-100.00,ENE,68,6.0,9.0,88,0.00,,,-99.99,3.000000,,2013-02-02 15:12:00,
2013-02-02 08:21:00,20.0,17.0,-100.00,ENE,68,6.0,9.0,88,0.00,,,-99.99,3.000000,,2013-02-02 15:21:00,
2013-02-02 08:32:00,20.0,17.0,-100.00,ENE,68,6.0,9.0,88,0.00,,,-99.99,3.000000,,2013-02-02 15:32:00,
2013-02-02 08:52:00,23.0,17.0,-100.00,ENE,62,7.0,8.0,79,0.00,,,0.00,123.000000,,2013-02-02 15:52:00,
2013-02-02 09:02:00,23.0,17.0,-100.00,ENE,62,7.0,8.0,79,0.00,,,0.00,123.000000,,2013-02-02 16:02:00,
2013-02-02 09:11:00,23.0,17.0,-100.00,ENE,62,7.0,8.0,79,0.00,,,0.00,123.000000,,2013-02-02 16:11:00,
2013-02-02 09:22:00,23.0,17.0,-100.00,ENE,62,7.0,8.0,79,0.00,,,0.00,123.000000,,2013-02-02 16:22:00,
2013-02-02 09:31:00,23.0,17.0,-100.00,ENE,62,7.0,8.0,79,0.00,,,0.00,123.000000,,2013-02-02 16:31:00,
2013-02-02 09:52:00,25.0,18.0,-100.00,ENE,66,7.0,9.0,73,0.00,,,0.00,319.000000,,2013-02-02 16:52:00,
2013-02-02 10:02:00,25.0,18.0,-100.00,ENE,66,7.0,9.0,73,0.00,,,0.00,319.000000,,2013-02-02 17:02:00,
2013-02-02 10:11:00,25.0,18.0,-100.00,ENE,66,7.0,9.0,73,0.00,,,0.00,319.000000,,2013-02-02 17:11:00,
2013-02-02 10:22:00,25.0,18.0,-100.00,ENE,66,7.0,9.0,73,0.00,,,0.00,319.000000,,2013-02-02 17:22:00,
2013-02-02 10:31:00,25.0,18.0,-100.00,ENE,66,7.0,9.0,73,0.00,,,0.00,319.000000,,2013-02-02 17:31:00,
2013-02-02 10:52:00,29.0,19.0,-100.00,NE,48,10.0,14.0,65,0.00,,,0.00,462.000000,,2013-02-02 17:52:00,
2013-02-02 11:02:00,29.0,19.0,-100.00,NE,48,10.0,14.0,65,0.00,,,0.00,462.000000,,2013-02-02 18:02:00,
2013-02-02 11:12:00,29.0,19.0,-100.00,NE,48,10.0,14.0,65,0.00,,,0.00,462.000000,,2013-02-02 18:12:00,
2013-02-02 11:21:00,29.0,19.0,-100.00,NE,48,10.0,14.0,65,0.00,,,0.00,462.000000,,2013-02-02 18:21:00,
2013-02-02 11:31:00,29.0,19.0,-100.00,NE,48,10.0,14.0,65,0.00,,,0.00,462.000000,,2013-02-02 18:31:00,
2013-02-02 11:52:00,31.0,20.0,-100.00,ENE,72,7.0,13.0,63,0.00,,,0.00,395.000000,,2013-02-02 18:52:00,
2013-02-02 12:02:00,31.0,20.0,-100.00,ENE,72,7.0,13.0,63,0.00,,,0.00,395.000000,,2013-02-02 19:02:00,
2013-02-02 12:31:00,31.0,20.0,-100.00,ENE,72,7.0,13.0,63,0.00,,,0.00,395.000000,,2013-02-02 19:31:00,
2013-02-02 12:52:00,34.0,20.0,-100.00,NE,54,6.0,10.0,55,0.00,,,0.00,557.000000,,2013-02-02 19:52:00,
2013-02-02 13:01:00,34.0,20.0,-100.00,NE,54,6.0,10.0,55,0.00,,,0.00,557.000000,,2013-02-02 20:01:00,
2013-02-02 13:11:00,34.0,20.0,-100.00,NE,54,6.0,10.0,55,0.00,,,0.00,557.000000,,2013-02-02 20:11:00,
2013-02-02 13:21:00,34.0,20.0,-100.00,NE,54,6.0,10.0,55,0.00,,,0.00,557.000000,,2013-02-02 20:21:00,
2013-02-02 13:32:00,34.0,20.0,-100.00,NE,54,6.0,10.0,55,0.00,,,0.00,557.000000,,2013-02-02 20:32:00,
2013-02-02 13:52:00,35.0,20.0,-100.00,ENE,70,5.0,8.0,54,0.00,,,0.00,633.000000,,2013-02-02 20:52:00,
2013-02-02 14:02:00,35.0,20.0,-100.00,ENE,70,5.0,8.0,54,0.00,,,0.00,633.000000,,2013-02-02 21:02:00,
2013-02-02 14:11:00,35.0,20.0,-100.00,ENE,70,5.0,8.0,54,0.00,,,0.00,633.000000,,2013-02-02 21:11:00,
2013-02-02 14:21:00,35.0,20.0,-100.00,ENE,70,5.0,8.0,54,0.00,,,0.00,633.000000,,2013-02-02 21:21:00,
2013-02-02 14:32:00,35.0,20.0,-100.00,ENE,70,5.0,8.0,54,0.00,,,0.00,633.000000,,2013-02-02 21:32:00,
2013-02-02 14:52:00,37.0,19.0,-100.00,East,80,3.0,6.0,48,0.00,,,0.00,489.000000,,2013-02-02 21:52:00,
2013-02-02 15:02:00,37.0,19.0,-100.00,East,80,3.0,6.0,48,0.00,,,0.00,489.000000,,2013-02-02 22:02:00,
2013-02-02 15:11:00,37.0,19.0,-100.00,East,80,3.0,6.0,48,0.00,,,0.00,489.000000,,2013-02-02 22:11:00,
2013-02-02 15:21:00,37.0,19.0,-100.00,East,80,3.0,6.0,48,0.00,,,0.00,489.000000,,2013-02-02 22:21:00,
2013-02-02 15:32:00,37.0,19.0,-100.00,East,80,3.0,6.0,48,0.00,,,0.00,489.000000,,2013-02-02 22:32:00,
2013-02-02 15:52:00,38.0,19.0,-100.00,East,83,3.0,4.0,46,0.00,,,0.00,357.000000,,2013-02-02 22:52:00,
2013-02-02 16:01:00,38.0,19.0,-100.00,East,83,3.0,4.0,46,0.00,,,0.00,357.000000,,2013-02-02 23:01:00,
2013-02-02 16:11:00,38.0,19.0,-100.00,East,83,3.0,4.0,46,0.00,,,0.00,357.000000,,2013-02-02 23:11:00,
2013-02-02 16:21:00,38.0,19.0,-100.00,East,83,3.0,4.0,46,0.00,,,0.00,357.000000,,2013-02-02 23:21:00,
2013-02-02 16:32:00,38.0,19.0,-100.00,East,83,3.0,4.0,46,0.00,,,0.00,357.000000,,2013-02-02 23:32:00,
2013-02-02 16:52:00,36.0,16.0,-100.00,East,91,2.0,3.0,43,0.00,,,0.00,204.000000,,2013-02-02 23:52:00,
2013-02-02 17:01:00,36.0,16.0,-100.00,East,91,2.0,3.0,43,0.00,,,0.00,204.000000,,2013-02-03 00:01:00,
2013-02-02 17:11:00,36.0,16.0,-100.00,East,91,2.0,3.0,43,0.00,,,0.00,204.000000,,2013-02-03 00:11:00,
2013-02-02 17:21:00,36.0,16.0,-100.00,East,91,2.0,3.0,43,0.00,,,0.00,204.000000,,2013-02-03 00:21:00,
2013-02-02 17:31:00,36.0,16.0,-100.00,East,91,2.0,3.0,43,0.00,,,0.00,204.000000,,2013-02-03 00:31:00,
2013-02-02 17:52:00,33.0,15.0,-100.00,East,88,4.0,4.0,48,0.00,,,0.00,42.000000,,2013-02-03 00:52:00,
2013-02-02 18:02:00,33.0,15.0,-100.00,East,88,4.0,4.0,48,0.00,,,0.00,42.000000,,2013-02-03 01:02:00,
2013-02-02 18:11:00,33.0,15.0,-100.00,East,88,4.0,4.0,48,0.00,,,0.00,42.000000,,2013-02-03 01:11:00,
2013-02-02 18:21:00,33.0,15.0,-100.00,East,88,4.0,4.0,48,0.00,,,0.00,42.000000,,2013-02-03 01:21:00,
2013-02-02 18:32:00,33.0,15.0,-100.00,East,88,4.0,4.0,48,0.00,,,0.00,42.000000,,2013-02-03 01:32:00,
2013-02-02 18:52:00,33.0,15.0,-100.00,ENE,69,4.0,4.0,47,0.00,,,0.00,0.000000,,2013-02-03 01:52:00,
2013-02-02 19:01:00,33.0,15.0,-100.00,ENE,69,4.0,4.0,47,0.00,,,0.00,0.000000,,2013-02-03 02:01:00,
2013-02-02 19:11:00,33.0,15.0,-100.00,ENE,69,4.0,4.0,47,0.00,,,0.00,0.000000,,2013-02-03 02:11:00,
2013-02-02 19:21:00,33.0,15.0,-100.00,ENE,69,4.0,4.0,47,0.00,,,0.00,0.000000,,2013-02-03 02:21:00,
2013-02-02 19:31:00,33.0,15.0,-100.00,ENE,69,4.0,4.0,47,0.00,,,0.00,0.000000,,2013-02-03 02:31:00,
2013-02-02 19:52:00,32.0,18.0,-100.00,NNE,32,3.0,4.0,55,0.00,,,0.00,0.000000,,2013-02-03 02:52:00,
2013-02-02 20:02:00,32.0,18.0,-100.00,NNE,32,3.0,4.0,55,0.00,,,0.00,0.000000,,2013-02-03 03:02:00,
2013-02-02 20:11:00,32.0,18.0,-100.00,NNE,32,3.0,4.0,55,0.00,,,0.00,0.000000,,2013-02-03 03:11:00,
2013-02-02 20:21:00,32.0,18.0,-100.00,NNE,32,3.0,4.0,55,0.00,,,0.00,0.000000,,2013-02-03 03:21:00,
2013-02-02 20:31:00,32.0,18.0,-100.00,NNE,32,3.0,4.0,55,0.00,,,0.00,0.000000,,2013-02-03 03:31:00,
2013-02-02 20:52:00,31.0,18.0,-100.00,ENE,62,5.0,5.0,59,0.00,,,0.00,0.000000,,2013-02-03 03:52:00,
2013-02-02 21:01:00,31.0,18.0,-100.00,ENE,62,5.0,5.0,59,0.00,,,0.00,0.000000,,2013-02-03 04:01:00,
2013-02-02 21:11:00,31.0,18.0,-100.00,ENE,62,5.0,5.0,59,0.00,,,0.00,0.000000,,2013-02-03 04:11:00,
2013-02-02 21:21:00,31.0,18.0,-100.00,ENE,62,5.0,5.0,59,0.00,,,0.00,0.000000,,2013-02-03 04:21:00,
2013-02-02 21:31:00,31.0,18.0,-100.00,ENE,62,5.0,5.0,59,0.00,,,0.00,0.000000,,2013-02-03 04:31:00,
2013-02-02 21:52:00,30.0,20.0,-100.00,East,82,3.0,5.0,66,0.00,,,0.00,0.000000,,2013-02-03 04:52:00,
2013-02-02 22:03:00,30.0,20.0,-100.00,East,82,3.0,5.0,66,0.00,,,0.00,0.000000,,2013-02-03 05:03:00,
2013-02-02 22:11:00,30.0,20.0,-100.00,East,82,3.0,5.0,66,0.00,,,0.00,0.000000,,2013-02-03 05:11:00,
2013-02-02 22:22:00,30.0,20.0,-100.00,East,82,3.0,5.0,66,0.00,,,0.00,0.000000,,2013-02-03 05:22:00,
2013-02-02 22:31:00,30.0,20.0,-100.00,East,82,3.0,5.0,66,0.00,,,0.00,0.000000,,2013-02-03 05:31:00,
2013-02-02 22:52:00,30.0,21.0,-100.00,ENE,62,5.0,6.0,68,0.00,,,0.00,0.000000,,2013-02-03 05:52:00,
2013-02-02 23:02:00,30.0,21.0,-100.00,ENE,62,5.0,6.0,68,0.00,,,0.00,0.000000,,2013-02-03 06:02:00,
2013-02-02 23:11:00,30.0,21.0,-100.00,ENE,62,5.0,6.0,68,0.00,,,0.00,0.000000,,2013-02-03 06:11:00,
2013-02-02 23:21:00,30.0,21.0,-100.00,ENE,62,5.0,6.0,68,0.00,,,0.00,0.000000,,2013-02-03 06:21:00,
2013-02-02 23:31:00,30.0,21.0,-100.00,ENE,62,5.0,6.0,68,0.00,,,0.00,0.000000,,2013-02-03 06:31:00,
2013-02-02 23:52:00,27.0,19.0,-100.00,ENE,77,8.0,9.0,72,0.00,,,0.00,0.000000,,2013-02-03 06:52:00,